<?xml version='1.0' encoding='UTF-8'?>
<gpx xmlns="http://www.topografix.com/GPX/1/1" creator="www.balnam.be" version="1.1" xmlns:xsi="http://www.w3.org/2001/XMLSchema-instance" xsi:schemaLocation="http://www.topografix.com/GPX/1/1 http://www.topografix.com/GPX/1/1/gpx.xsd">
<trk>
<name>njmmn1</name>
<cmt>r</cmt>
<desc>Mornimont Chemin n°1 Rue du Rabot / Route de la Basse Sambre / Rue Grande / Rue de l'Hôtel de Ville / ?</desc>
<link href="https://chemins.be/mornimont/chemin/1"/><trkseg>
<trkpt lat="50.428361" lon="4.696223"><time>2026-05-07T20:08:52Z</time></trkpt>
<trkpt lat="50.429779" lon="4.697091"><time>2026-05-07T20:18:52Z</time></trkpt>
<trkpt lat="50.432954" lon="4.696649"><time>2026-05-07T20:28:52Z</time></trkpt>
<trkpt lat="50.434158" lon="4.696868"><time>2026-05-07T20:38:52Z</time></trkpt>
<trkpt lat="50.436013" lon="4.695811"><time>2026-05-07T20:48:52Z</time></trkpt>
<trkpt lat="50.440750" lon="4.696252"><time>2026-05-07T20:58:52Z</time></trkpt>
<trkpt lat="50.441702" lon="4.696569"><time>2026-05-07T21:08:52Z</time></trkpt>
<trkpt lat="50.442957" lon="4.697929"><time>2026-05-07T21:18:52Z</time></trkpt>
<trkpt lat="50.444582" lon="4.698757"><time>2026-05-07T21:28:52Z</time></trkpt>
<trkpt lat="50.446529" lon="4.700122"><time>2026-05-07T21:38:52Z</time></trkpt>
<trkpt lat="50.447092" lon="4.701097"><time>2026-05-07T21:48:52Z</time></trkpt>
<trkpt lat="50.448888" lon="4.702025"><time>2026-05-07T21:58:52Z</time></trkpt>
<trkpt lat="50.449300" lon="4.702324"><time>2026-05-07T22:08:52Z</time></trkpt>
</trkseg></trk>
<trk>
<name>njmmn1</name>
<cmt>s</cmt>
<desc>Mornimont Chemin n°1 Rue du Rabot / Route de la Basse Sambre / Rue Grande / Rue de l'Hôtel de Ville / ?</desc>
<link href="https://chemins.be/mornimont/chemin/1"/><trkseg>
<trkpt lat="50.449300" lon="4.702324"><time>2026-05-07T22:08:52Z</time></trkpt>
<trkpt lat="50.449821" lon="4.702736"><time>2026-05-07T22:18:52Z</time></trkpt>
</trkseg></trk>
<trk>
<name>njmmn1</name>
<cmt>r</cmt>
<desc>Mornimont Chemin n°1 Rue du Rabot / Route de la Basse Sambre / Rue Grande / Rue de l'Hôtel de Ville / ?</desc>
<link href="https://chemins.be/mornimont/chemin/1"/><trkseg>
<trkpt lat="50.449821" lon="4.702736"><time>2026-05-07T22:18:52Z</time></trkpt>
<trkpt lat="50.450126" lon="4.702963"><time>2026-05-07T22:28:52Z</time></trkpt>
<trkpt lat="50.450547" lon="4.703515"><time>2026-05-07T22:38:52Z</time></trkpt>
<trkpt lat="50.451949" lon="4.703427"><time>2026-05-07T22:48:52Z</time></trkpt>
<trkpt lat="50.453389" lon="4.703099"><time>2026-05-07T22:58:52Z</time></trkpt>
<trkpt lat="50.454791" lon="4.703053"><time>2026-05-07T23:08:52Z</time></trkpt>
<trkpt lat="50.457397" lon="4.703747"><time>2026-05-07T23:18:52Z</time></trkpt>
<trkpt lat="50.458096" lon="4.704527"><time>2026-05-07T23:28:52Z</time></trkpt>
<trkpt lat="50.459067" lon="4.704505"><time>2026-05-07T23:38:52Z</time></trkpt>
<trkpt lat="50.460109" lon="4.704541"><time>2026-05-07T23:48:52Z</time></trkpt>
<trkpt lat="50.460782" lon="4.704968"><time>2026-05-07T23:58:52Z</time></trkpt>
<trkpt lat="50.461789" lon="4.705215"><time>2026-05-08T00:08:52Z</time></trkpt>
</trkseg></trk>
<trk>
<name>njmmn1</name>
<cmt>v</cmt>
<desc>Mornimont Chemin n°1 Rue du Rabot / Route de la Basse Sambre / Rue Grande / Rue de l'Hôtel de Ville / ?</desc>
<link href="https://chemins.be/mornimont/chemin/1"/><trkseg>
<trkpt lat="50.461789" lon="4.705215"><time>2026-05-08T00:08:52Z</time></trkpt>
<trkpt lat="50.462320" lon="4.704979"><time>2026-05-08T00:18:52Z</time></trkpt>
<trkpt lat="50.463227" lon="4.705281"><time>2026-05-08T00:28:52Z</time></trkpt>
<trkpt lat="50.463362" lon="4.705156"><time>2026-05-08T00:38:52Z</time></trkpt>
<trkpt lat="50.463497" lon="4.705171"><time>2026-05-08T00:48:52Z</time></trkpt>
</trkseg>
</trk>
<trk>
<name>njmmn10</name>
<cmt>q</cmt>
<desc>Mornimont Chemin n°10 </desc>
<link href="https://chemins.be/mornimont/chemin/10"/><trkseg>
<trkpt lat="50.440750" lon="4.696379"><time>2026-05-07T20:08:52Z</time></trkpt>
<trkpt lat="50.440132" lon="4.698613"><time>2026-05-07T20:18:52Z</time></trkpt>
</trkseg>
</trk>
<trk>
<name>njmmn11</name>
<cmt>v</cmt>
<desc>Mornimont Chemin n°11 </desc>
<link href="https://chemins.be/mornimont/chemin/11"/><trkseg>
<trkpt lat="50.428148" lon="4.695250"><time>2026-05-07T20:08:52Z</time></trkpt>
<trkpt lat="50.427457" lon="4.691694"><time>2026-05-07T20:18:52Z</time></trkpt>
</trkseg>
</trk>
<trk>
<name>njmmn12</name>
<cmt>d</cmt>
<desc>Mornimont Chemin n°12 </desc>
<link href="https://chemins.be/mornimont/chemin/12"/><trkseg>
<trkpt lat="50.433610" lon="4.696850"><time>2026-05-07T20:08:52Z</time></trkpt>
<trkpt lat="50.432877" lon="4.698563"><time>2026-05-07T20:18:52Z</time></trkpt>
</trkseg>
</trk>
<trk>
<name>njmmn13</name>
<cmt>b</cmt>
<desc>Mornimont Chemin n°13 Carrefour Emile Stasse</desc>
<link href="https://chemins.be/mornimont/chemin/13"/><trkseg>
<trkpt lat="50.451445" lon="4.703733"><time>2026-05-07T20:08:52Z</time></trkpt>
<trkpt lat="50.451434" lon="4.704367"><time>2026-05-07T20:18:52Z</time></trkpt>
<trkpt lat="50.451108" lon="4.705125"><time>2026-05-07T20:28:52Z</time></trkpt>
</trkseg>
</trk>
<trk>
<name>njmmn14</name>
<cmt>s</cmt>
<desc>Mornimont Sentier n°14 </desc>
<link href="https://chemins.be/mornimont/sentier/14"/><trkseg>
<trkpt lat="50.450393" lon="4.703669"><time>2026-05-07T20:08:52Z</time></trkpt>
<trkpt lat="50.449232" lon="4.704083"><time>2026-05-07T20:18:52Z</time></trkpt>
<trkpt lat="50.447657" lon="4.704720"><time>2026-05-07T20:28:52Z</time></trkpt>
<trkpt lat="50.446677" lon="4.704685"><time>2026-05-07T20:38:52Z</time></trkpt>
<trkpt lat="50.443437" lon="4.706056"><time>2026-05-07T20:48:52Z</time></trkpt>
</trkseg>
</trk>
<trk>
<name>njmmn15</name>
<cmt>v</cmt>
<desc>Mornimont Sentier n°15 </desc>
<link href="https://chemins.be/mornimont/sentier/15"/><trkseg>
<trkpt lat="50.457136" lon="4.703590"><time>2026-05-07T20:08:52Z</time></trkpt>
<trkpt lat="50.457156" lon="4.703182"><time>2026-05-07T20:18:52Z</time></trkpt>
<trkpt lat="50.457166" lon="4.702774"><time>2026-05-07T20:28:52Z</time></trkpt>
</trkseg></trk>
<trk>
<name>njmmn15</name>
<cmt>d</cmt>
<desc>Mornimont Sentier n°15 </desc>
<link href="https://chemins.be/mornimont/sentier/15"/><trkseg>
<trkpt lat="50.457166" lon="4.702774"><time>2026-05-07T20:28:52Z</time></trkpt>
<trkpt lat="50.457106" lon="4.701492"><time>2026-05-07T20:38:52Z</time></trkpt>
</trkseg>
</trk>
<trk>
<name>njmmn16</name>
<cmt>v</cmt>
<desc>Mornimont Sentier n°16 </desc>
<link href="https://chemins.be/mornimont/sentier/16"/><trkseg>
<trkpt lat="50.454657" lon="4.703024"><time>2026-05-07T20:08:52Z</time></trkpt>
<trkpt lat="50.454567" lon="4.702896"><time>2026-05-07T20:18:52Z</time></trkpt>
<trkpt lat="50.454217" lon="4.702739"><time>2026-05-07T20:28:52Z</time></trkpt>
<trkpt lat="50.454199" lon="4.702612"><time>2026-05-07T20:38:52Z</time></trkpt>
<trkpt lat="50.454020" lon="4.702625"><time>2026-05-07T20:48:52Z</time></trkpt>
</trkseg>
</trk>
<trk>
<name>njmmn17</name>
<cmt>d</cmt>
<desc>Mornimont Sentier n°17 </desc>
<link href="https://chemins.be/mornimont/sentier/17"/><trkseg>
<trkpt lat="50.451092" lon="4.705210"><time>2026-05-07T20:08:52Z</time></trkpt>
<trkpt lat="50.450062" lon="4.706314"><time>2026-05-07T20:18:52Z</time></trkpt>
<trkpt lat="50.448822" lon="4.706997"><time>2026-05-07T20:28:52Z</time></trkpt>
</trkseg>
</trk>
<trk>
<name>njmmn18</name>
<cmt>b</cmt>
<desc>Mornimont Sentier n°18 </desc>
<link href="https://chemins.be/mornimont/sentier/18"/><trkseg>
<trkpt lat="50.451967" lon="4.703441"><time>2026-05-07T20:08:52Z</time></trkpt>
<trkpt lat="50.451234" lon="4.705323"><time>2026-05-07T20:18:52Z</time></trkpt>
<trkpt lat="50.449806" lon="4.707749"><time>2026-05-07T20:28:52Z</time></trkpt>
<trkpt lat="50.449120" lon="4.708701"><time>2026-05-07T20:38:52Z</time></trkpt>
</trkseg>
</trk>
<trk>
<name>njmmn19</name>
<cmt>r</cmt>
<desc>Mornimont Sentier n°19 Route de la Basse Sambre / Rue du Rabot</desc>
<link href="https://chemins.be/mornimont/sentier/19"/><trkseg>
<trkpt lat="50.450421" lon="4.703557"><time>2026-05-07T20:08:52Z</time></trkpt>
<trkpt lat="50.449973" lon="4.702934"><time>2026-05-07T20:18:52Z</time></trkpt>
</trkseg></trk>
<trk>
<name>njmmn19</name>
<cmt>s</cmt>
<desc>Mornimont Sentier n°19 Route de la Basse Sambre / Rue du Rabot</desc>
<link href="https://chemins.be/mornimont/sentier/19"/><trkseg>
<trkpt lat="50.449973" lon="4.702934"><time>2026-05-07T20:18:52Z</time></trkpt>
<trkpt lat="50.448851" lon="4.702180"><time>2026-05-07T20:28:52Z</time></trkpt>
</trkseg></trk>
<trk>
<name>njmmn19</name>
<cmt>r</cmt>
<desc>Mornimont Sentier n°19 Route de la Basse Sambre / Rue du Rabot</desc>
<link href="https://chemins.be/mornimont/sentier/19"/><trkseg>
<trkpt lat="50.448851" lon="4.702180"><time>2026-05-07T20:28:52Z</time></trkpt>
<trkpt lat="50.447119" lon="4.701281"><time>2026-05-07T20:38:52Z</time></trkpt>
<trkpt lat="50.446492" lon="4.700249"><time>2026-05-07T20:48:52Z</time></trkpt>
<trkpt lat="50.445846" lon="4.699906"><time>2026-05-07T20:58:52Z</time></trkpt>
<trkpt lat="50.445200" lon="4.699367"><time>2026-05-07T21:08:52Z</time></trkpt>
</trkseg>
</trk>
<trk>
<name>njmmn2</name>
<cmt>r</cmt>
<desc>Mornimont Chemin n°2 Rue de la Centrale</desc>
<link href="https://chemins.be/mornimont/chemin/2"/><trkseg>
<trkpt lat="50.459076" lon="4.704435"><time>2026-05-07T20:08:52Z</time></trkpt>
<trkpt lat="50.458843" lon="4.701039"><time>2026-05-07T20:18:52Z</time></trkpt>
<trkpt lat="50.458719" lon="4.700292"><time>2026-05-07T20:28:52Z</time></trkpt>
</trkseg>
</trk>
<trk>
<name>njmmn3</name>
<cmt>v</cmt>
<desc>Mornimont Chemin n°3 </desc>
<link href="https://chemins.be/mornimont/chemin/3"/><trkseg>
<trkpt lat="50.459813" lon="4.704398"><time>2026-05-07T20:08:52Z</time></trkpt>
<trkpt lat="50.459797" lon="4.703778"><time>2026-05-07T20:18:52Z</time></trkpt>
<trkpt lat="50.459790" lon="4.703144"><time>2026-05-07T20:28:52Z</time></trkpt>
</trkseg>
</trk>
<trk>
<name>njmmn5</name>
<cmt>r</cmt>
<desc>Mornimont Chemin n°5 Rue de l'Hôtel de Ville</desc>
<link href="https://chemins.be/mornimont/chemin/5"/><trkseg>
<trkpt lat="50.461861" lon="4.705243"><time>2026-05-07T20:08:52Z</time></trkpt>
<trkpt lat="50.462309" lon="4.705528"><time>2026-05-07T20:18:52Z</time></trkpt>
<trkpt lat="50.462343" lon="4.706233"><time>2026-05-07T20:28:52Z</time></trkpt>
<trkpt lat="50.462378" lon="4.706515"><time>2026-05-07T20:38:52Z</time></trkpt>
<trkpt lat="50.462187" lon="4.707302"><time>2026-05-07T20:48:52Z</time></trkpt>
</trkseg>
</trk>
<trk>
<name>njmmn6</name>
<cmt>r</cmt>
<desc>Mornimont Chemin n°6 Rue de la Vieille Sambre</desc>
<link href="https://chemins.be/mornimont/chemin/6"/><trkseg>
<trkpt lat="50.459381" lon="4.704677"><time>2026-05-07T20:08:52Z</time></trkpt>
<trkpt lat="50.459306" lon="4.705648"><time>2026-05-07T20:18:52Z</time></trkpt>
<trkpt lat="50.458764" lon="4.706742"><time>2026-05-07T20:28:52Z</time></trkpt>
<trkpt lat="50.457971" lon="4.710257"><time>2026-05-07T20:38:52Z</time></trkpt>
</trkseg>
</trk>
<trk>
<name>njmmn7</name>
<cmt>r</cmt>
<desc>Mornimont Chemin n°7 Rue des Près / Rue des Pres</desc>
<link href="https://chemins.be/mornimont/chemin/7"/><trkseg>
<trkpt lat="50.454693" lon="4.702982"><time>2026-05-07T20:08:52Z</time></trkpt>
<trkpt lat="50.455593" lon="4.702678"><time>2026-05-07T20:18:52Z</time></trkpt>
<trkpt lat="50.455613" lon="4.702030"><time>2026-05-07T20:28:52Z</time></trkpt>
</trkseg>
</trk>
<trk>
<name>njmmn8</name>
<cmt>s</cmt>
<desc>Mornimont Chemin n°8 </desc>
<link href="https://chemins.be/mornimont/chemin/8"/><trkseg>
<trkpt lat="50.450627" lon="4.703544"><time>2026-05-07T20:08:52Z</time></trkpt>
<trkpt lat="50.450406" lon="4.702571"><time>2026-05-07T20:18:52Z</time></trkpt>
</trkseg>
</trk>
<trk>
<name>njmmn9</name>
<cmt>r</cmt>
<desc>Mornimont Chemin n°9 Rue Nouvelle</desc>
<link href="https://chemins.be/mornimont/chemin/9"/><trkseg>
<trkpt lat="50.440777" lon="4.696365"><time>2026-05-07T20:08:52Z</time></trkpt>
<trkpt lat="50.440736" lon="4.694647"><time>2026-05-07T20:18:52Z</time></trkpt>
<trkpt lat="50.440595" lon="4.693661"><time>2026-05-07T20:28:52Z</time></trkpt>
</trkseg></trk>
<trk>
<name>njmmn9</name>
<cmt>v</cmt>
<desc>Mornimont Chemin n°9 Rue Nouvelle</desc>
<link href="https://chemins.be/mornimont/chemin/9"/><trkseg>
<trkpt lat="50.440595" lon="4.693661"><time>2026-05-07T20:28:52Z</time></trkpt>
<trkpt lat="50.440400" lon="4.692843"><time>2026-05-07T20:38:52Z</time></trkpt>
<trkpt lat="50.440321" lon="4.692054"><time>2026-05-07T20:48:52Z</time></trkpt>
<trkpt lat="50.440080" lon="4.691504"><time>2026-05-07T20:58:52Z</time></trkpt>
</trkseg>
</trk>
<trk>
<name>njmmni1</name>
<cmt>v</cmt>
<desc>Mornimont Sentier n°i1 Ancien chemin de halage</desc>
<link href="https://chemins.be/mornimont/sentier/i1"/><trkseg>
<trkpt lat="50.447388" lon="4.710787"><time>2026-05-07T20:08:52Z</time></trkpt>
<trkpt lat="50.447596" lon="4.710225"><time>2026-05-07T20:18:52Z</time></trkpt>
<trkpt lat="50.447930" lon="4.709932"><time>2026-05-07T20:28:52Z</time></trkpt>
<trkpt lat="50.448335" lon="4.709836"><time>2026-05-07T20:38:52Z</time></trkpt>
<trkpt lat="50.449859" lon="4.711086"><time>2026-05-07T20:48:52Z</time></trkpt>
<trkpt lat="50.450882" lon="4.712799"><time>2026-05-07T20:58:52Z</time></trkpt>
<trkpt lat="50.451276" lon="4.712919"><time>2026-05-07T21:08:52Z</time></trkpt>
</trkseg></trk>
<trk>
<name>njmmni1</name>
<cmt>r</cmt>
<desc>Mornimont Sentier n°i1 Ancien chemin de halage</desc>
<link href="https://chemins.be/mornimont/sentier/i1"/><trkseg>
<trkpt lat="50.451276" lon="4.712919"><time>2026-05-07T21:08:52Z</time></trkpt>
<trkpt lat="50.451970" lon="4.712971"><time>2026-05-07T21:18:52Z</time></trkpt>
<trkpt lat="50.452822" lon="4.712628"><time>2026-05-07T21:28:52Z</time></trkpt>
<trkpt lat="50.453893" lon="4.712059"><time>2026-05-07T21:38:52Z</time></trkpt>
<trkpt lat="50.454450" lon="4.712133"><time>2026-05-07T21:48:52Z</time></trkpt>
<trkpt lat="50.454827" lon="4.712327"><time>2026-05-07T21:58:52Z</time></trkpt>
</trkseg></trk>
<trk>
<name>njmmni1</name>
<cmt>v</cmt>
<desc>Mornimont Sentier n°i1 Ancien chemin de halage</desc>
<link href="https://chemins.be/mornimont/sentier/i1"/><trkseg>
<trkpt lat="50.454827" lon="4.712327"><time>2026-05-07T21:58:52Z</time></trkpt>
<trkpt lat="50.455434" lon="4.714055"><time>2026-05-07T22:08:52Z</time></trkpt>
<trkpt lat="50.456420" lon="4.715006"><time>2026-05-07T22:18:52Z</time></trkpt>
<trkpt lat="50.457129" lon="4.715180"><time>2026-05-07T22:28:52Z</time></trkpt>
<trkpt lat="50.458308" lon="4.714823"><time>2026-05-07T22:38:52Z</time></trkpt>
<trkpt lat="50.459403" lon="4.715535"><time>2026-05-07T22:48:52Z</time></trkpt>
<trkpt lat="50.460282" lon="4.716147"><time>2026-05-07T22:58:52Z</time></trkpt>
<trkpt lat="50.460687" lon="4.716150"><time>2026-05-07T23:08:52Z</time></trkpt>
<trkpt lat="50.461120" lon="4.715576"><time>2026-05-07T23:18:52Z</time></trkpt>
<trkpt lat="50.461125" lon="4.713703"><time>2026-05-07T23:28:52Z</time></trkpt>
<trkpt lat="50.461538" lon="4.711072"><time>2026-05-07T23:38:52Z</time></trkpt>
<trkpt lat="50.461927" lon="4.710159"><time>2026-05-07T23:48:52Z</time></trkpt>
<trkpt lat="50.462389" lon="4.708965"><time>2026-05-07T23:58:52Z</time></trkpt>
<trkpt lat="50.462611" lon="4.707023"><time>2026-05-08T00:08:52Z</time></trkpt>
<trkpt lat="50.463000" lon="4.705998"><time>2026-05-08T00:18:52Z</time></trkpt>
<trkpt lat="50.463209" lon="4.705366"><time>2026-05-08T00:28:52Z</time></trkpt>
</trkseg>
</trk>
<trk>
<name>njmmni2</name>
<cmt>v</cmt>
<desc>Mornimont Sentier n°i2 </desc>
<link href="https://chemins.be/mornimont/sentier/i2"/><trkseg>
<trkpt lat="50.445104" lon="4.704843"><time>2026-05-07T20:08:52Z</time></trkpt>
<trkpt lat="50.445048" lon="4.705377"><time>2026-05-07T20:18:52Z</time></trkpt>
<trkpt lat="50.444956" lon="4.706151"><time>2026-05-07T20:28:52Z</time></trkpt>
<trkpt lat="50.444991" lon="4.706545"><time>2026-05-07T20:38:52Z</time></trkpt>
</trkseg>
</trk>
<trk>
<name>njmmni3</name>
<cmt>d</cmt>
<desc>Mornimont Chemin n°i3 </desc>
<link href="https://chemins.be/mornimont/chemin/i3"/><trkseg>
<trkpt lat="50.463236" lon="4.705183"><time>2026-05-07T20:08:52Z</time></trkpt>
<trkpt lat="50.463239" lon="4.704310"><time>2026-05-07T20:18:52Z</time></trkpt>
<trkpt lat="50.462955" lon="4.702815"><time>2026-05-07T20:28:52Z</time></trkpt>
<trkpt lat="50.462663" lon="4.701320"><time>2026-05-07T20:38:52Z</time></trkpt>
</trkseg></trk>
<trk>
<name>njmmni3</name>
<cmt>s</cmt>
<desc>Mornimont Chemin n°i3 </desc>
<link href="https://chemins.be/mornimont/chemin/i3"/><trkseg>
<trkpt lat="50.462663" lon="4.701320"><time>2026-05-07T20:38:52Z</time></trkpt>
<trkpt lat="50.462188" lon="4.700697"><time>2026-05-07T20:48:52Z</time></trkpt>
<trkpt lat="50.461488" lon="4.700466"><time>2026-05-07T20:58:52Z</time></trkpt>
<trkpt lat="50.460112" lon="4.700583"><time>2026-05-07T21:08:52Z</time></trkpt>
<trkpt lat="50.459528" lon="4.700453"><time>2026-05-07T21:18:52Z</time></trkpt>
<trkpt lat="50.458799" lon="4.700828"><time>2026-05-07T21:28:52Z</time></trkpt>
</trkseg></trk>
<trk>
<name>njmmni3</name>
<cmt>r</cmt>
<desc>Mornimont Chemin n°i3 </desc>
<link href="https://chemins.be/mornimont/chemin/i3"/><trkseg>
<trkpt lat="50.458799" lon="4.700828"><time>2026-05-07T21:28:52Z</time></trkpt>
<trkpt lat="50.458043" lon="4.701034"><time>2026-05-07T21:38:52Z</time></trkpt>
</trkseg></trk>
<trk>
<name>njmmni3</name>
<cmt>d</cmt>
<desc>Mornimont Chemin n°i3 </desc>
<link href="https://chemins.be/mornimont/chemin/i3"/><trkseg>
<trkpt lat="50.458043" lon="4.701034"><time>2026-05-07T21:38:52Z</time></trkpt>
<trkpt lat="50.457116" lon="4.701435"><time>2026-05-07T21:48:52Z</time></trkpt>
<trkpt lat="50.455658" lon="4.701974"><time>2026-05-07T21:58:52Z</time></trkpt>
<trkpt lat="50.454101" lon="4.702597"><time>2026-05-07T22:08:52Z</time></trkpt>
</trkseg>
</trk>
<trk>
<name>njmmni4</name>
<cmt>v</cmt>
<desc>Mornimont Sentier n°i4 </desc>
<link href="https://chemins.be/mornimont/sentier/i4"/><trkseg>
<trkpt lat="50.455263" lon="4.704802"><time>2026-05-07T20:08:52Z</time></trkpt>
<trkpt lat="50.455192" lon="4.704605"><time>2026-05-07T20:18:52Z</time></trkpt>
<trkpt lat="50.455166" lon="4.704196"><time>2026-05-07T20:28:52Z</time></trkpt>
<trkpt lat="50.455238" lon="4.704013"><time>2026-05-07T20:38:52Z</time></trkpt>
</trkseg>
</trk>
<trk>
<name>njmmni5</name>
<cmt>v</cmt>
<desc>Mornimont Sentier n°i5 </desc>
<link href="https://chemins.be/mornimont/sentier/i5"/><trkseg>
<trkpt lat="50.443754" lon="4.708339"><time>2026-05-07T20:08:52Z</time></trkpt>
<trkpt lat="50.445220" lon="4.708110"><time>2026-05-07T20:18:52Z</time></trkpt>
<trkpt lat="50.446047" lon="4.708144"><time>2026-05-07T20:28:52Z</time></trkpt>
<trkpt lat="50.447856" lon="4.707354"><time>2026-05-07T20:38:52Z</time></trkpt>
<trkpt lat="50.448712" lon="4.706713"><time>2026-05-07T20:48:52Z</time></trkpt>
<trkpt lat="50.449291" lon="4.705478"><time>2026-05-07T20:58:52Z</time></trkpt>
<trkpt lat="50.449925" lon="4.703863"><time>2026-05-07T21:08:52Z</time></trkpt>
</trkseg>
</trk>
<trk>
<name>njmmni6</name>
<cmt>v</cmt>
<desc>Mornimont Chemin n°i6 </desc>
<link href="https://chemins.be/mornimont/chemin/i6"/><trkseg>
<trkpt lat="50.432684" lon="4.691492"><time>2026-05-07T20:08:52Z</time></trkpt>
<trkpt lat="50.431180" lon="4.691048"><time>2026-05-07T20:18:52Z</time></trkpt>
<trkpt lat="50.430699" lon="4.691031"><time>2026-05-07T20:28:52Z</time></trkpt>
<trkpt lat="50.428270" lon="4.691372"><time>2026-05-07T20:38:52Z</time></trkpt>
<trkpt lat="50.427498" lon="4.691391"><time>2026-05-07T20:48:52Z</time></trkpt>
</trkseg>
</trk>
<trk>
<name>njmmnL130</name>
<cmt>t</cmt>
<desc>Mornimont Chemin n°L130 </desc>
<link href="https://chemins.be/mornimont/chemin/L130"/><trkseg>
<trkpt lat="50.452085" lon="4.703188"><time>2026-05-07T20:08:52Z</time></trkpt>
<trkpt lat="50.450565" lon="4.706515"><time>2026-05-07T20:18:52Z</time></trkpt>
<trkpt lat="50.448697" lon="4.709008"><time>2026-05-07T20:28:52Z</time></trkpt>
<trkpt lat="50.448102" lon="4.709412"><time>2026-05-07T20:38:52Z</time></trkpt>
</trkseg>
</trk>
<trk>
<name>njmmnp1</name>
<cmt>q</cmt>
<desc>Mornimont Sentier particulier n°p1 </desc>
<link href="https://chemins.be/mornimont/sentier/p1"/><trkseg>
<trkpt lat="50.443540" lon="4.698257"><time>2026-05-07T20:08:52Z</time></trkpt>
<trkpt lat="50.443260" lon="4.698621"><time>2026-05-07T20:18:52Z</time></trkpt>
<trkpt lat="50.443142" lon="4.699254"><time>2026-05-07T20:28:52Z</time></trkpt>
<trkpt lat="50.443103" lon="4.700211"><time>2026-05-07T20:38:52Z</time></trkpt>
<trkpt lat="50.443627" lon="4.702368"><time>2026-05-07T20:48:52Z</time></trkpt>
<trkpt lat="50.443651" lon="4.703579"><time>2026-05-07T20:58:52Z</time></trkpt>
<trkpt lat="50.443604" lon="4.704339"><time>2026-05-07T21:08:52Z</time></trkpt>
</trkseg>
</trk>
</gpx>